sensor_id;sensor_type;location;lat;lon;timestamp;P1;durP1;ratioP1;P2;durP2;ratioP2
18881;SDS011;9573;50.948;11.600;2023-01-29T00:01:56;24.20;;;7.83;;
18881;SDS011;9573;50.948;11.600;2023-01-29T00:04:23;23.87;;;7.93;;
18881;SDS011;9573;50.948;11.600;2023-01-29T00:06:51;27.60;;;7.17;;
18881;SDS011;9573;50.948;11.600;2023-01-29T00:09:18;23.23;;;7.70;;
18881;SDS011;9573;50.948;11.600;2023-01-29T00:11:45;26.90;;;7.83;;
18881;SDS011;9573;50.948;11.600;2023-01-29T00:14:12;26.63;;;8.07;;
18881;SDS011;9573;50.948;11.600;2023-01-29T00:16:41;24.60;;;8.13;;
18881;SDS011;9573;50.948;11.600;2023-01-29T00:19:08;24.80;;;8.17;;
18881;SDS011;9573;50.948;11.600;2023-01-29T00:21:35;25.47;;;8.47;;
18881;SDS011;9573;50.948;11.600;2023-01-29T00:24:02;22.80;;;7.33;;
18881;SDS011;9573;50.948;11.600;2023-01-29T00:26:30;22.13;;;7.40;;
18881;SDS011;9573;50.948;11.600;2023-01-29T00:28:57;21.97;;;6.97;;
18881;SDS011;9573;50.948;11.600;2023-01-29T00:31:26;24.27;;;7.27;;
18881;SDS011;9573;50.948;11.600;2023-01-29T00:33:55;25.77;;;7.60;;
18881;SDS011;9573;50.948;11.600;2023-01-29T00:36:23;25.03;;;7.47;;
18881;SDS011;9573;50.948;11.600;2023-01-29T00:38:54;23.30;;;7.60;;
18881;SDS011;9573;50.948;11.600;2023-01-29T00:41:25;22.27;;;7.07;;
18881;SDS011;9573;50.948;11.600;2023-01-29T00:44:11;25.77;;;6.97;;
18881;SDS011;9573;50.948;11.600;2023-01-29T00:46:56;24.87;;;7.70;;
18881;SDS011;9573;50.948;11.600;2023-01-29T00:49:24;23.40;;;6.57;;
18881;SDS011;9573;50.948;11.600;2023-01-29T00:51:52;24.13;;;7.17;;
18881;SDS011;9573;50.948;11.600;2023-01-29T00:54:33;22.07;;;6.83;;
18881;SDS011;9573;50.948;11.600;2023-01-29T00:57:00;23.27;;;7.27;;
18881;SDS011;9573;50.948;11.600;2023-01-29T00:59:27;25.30;;;7.07;;
18881;SDS011;9573;50.948;11.600;2023-01-29T01:01:54;21.27;;;7.00;;
18881;SDS011;9573;50.948;11.600;2023-01-29T01:04:41;26.13;;;7.07;;
18881;SDS011;9573;50.948;11.600;2023-01-29T01:07:08;21.27;;;6.83;;
18881;SDS011;9573;50.948;11.600;2023-01-29T01:09:35;22.73;;;6.70;;
18881;SDS011;9573;50.948;11.600;2023-01-29T01:12:20;23.20;;;7.20;;
18881;SDS011;9573;50.948;11.600;2023-01-29T01:14:48;25.10;;;7.50;;
18881;SDS011;9573;50.948;11.600;2023-01-29T01:17:15;25.80;;;8.20;;
18881;SDS011;9573;50.948;11.600;2023-01-29T01:19:44;21.97;;;6.47;;
18881;SDS011;9573;50.948;11.600;2023-01-29T01:22:11;22.77;;;7.00;;
18881;SDS011;9573;50.948;11.600;2023-01-29T01:24:38;26.17;;;6.40;;
18881;SDS011;9573;50.948;11.600;2023-01-29T01:27:05;20.97;;;6.73;;
18881;SDS011;9573;50.948;11.600;2023-01-29T01:29:33;25.77;;;7.93;;
18881;SDS011;9573;50.948;11.600;2023-01-29T01:32:00;23.30;;;6.90;;
18881;SDS011;9573;50.948;11.600;2023-01-29T01:34:27;26.33;;;7.10;;
18881;SDS011;9573;50.948;11.600;2023-01-29T01:36:56;25.83;;;7.50;;
18881;SDS011;9573;50.948;11.600;2023-01-29T01:39:23;22.80;;;7.83;;
18881;SDS011;9573;50.948;11.600;2023-01-29T01:41:50;24.07;;;6.97;;
18881;SDS011;9573;50.948;11.600;2023-01-29T01:47:23;22.97;;;6.97;;
18881;SDS011;9573;50.948;11.600;2023-01-29T01:49:58;21.53;;;6.60;;
18881;SDS011;9573;50.948;11.600;2023-01-29T01:52:32;23.83;;;7.20;;
18881;SDS011;9573;50.948;11.600;2023-01-29T01:55:00;24.27;;;7.27;;
18881;SDS011;9573;50.948;11.600;2023-01-29T01:57:28;26.63;;;8.23;;
18881;SDS011;9573;50.948;11.600;2023-01-29T01:59:58;27.10;;;7.83;;
18881;SDS011;9573;50.948;11.600;2023-01-29T02:02:36;24.67;;;7.20;;
18881;SDS011;9573;50.948;11.600;2023-01-29T02:05:22;23.57;;;7.00;;
18881;SDS011;9573;50.948;11.600;2023-01-29T02:08:09;22.00;;;7.33;;
18881;SDS011;9573;50.948;11.600;2023-01-29T02:10:54;24.73;;;7.40;;
18881;SDS011;9573;50.948;11.600;2023-01-29T02:13:22;24.20;;;7.40;;
18881;SDS011;9573;50.948;11.600;2023-01-29T02:15:49;22.13;;;6.77;;
18881;SDS011;9573;50.948;11.600;2023-01-29T02:18:17;24.23;;;7.77;;
18881;SDS011;9573;50.948;11.600;2023-01-29T02:20:48;23.83;;;7.47;;
18881;SDS011;9573;50.948;11.600;2023-01-29T02:26:49;24.60;;;7.27;;
18881;SDS011;9573;50.948;11.600;2023-01-29T02:29:32;25.33;;;7.17;;
18881;SDS011;9573;50.948;11.600;2023-01-29T02:32:15;23.80;;;7.20;;
18881;SDS011;9573;50.948;11.600;2023-01-29T02:34:56;24.03;;;6.67;;
18881;SDS011;9573;50.948;11.600;2023-01-29T02:37:56;23.67;;;7.17;;
18881;SDS011;9573;50.948;11.600;2023-01-29T02:40:34;21.00;;;6.40;;
18881;SDS011;9573;50.948;11.600;2023-01-29T02:43:10;26.13;;;7.37;;
18881;SDS011;9573;50.948;11.600;2023-01-29T02:45:52;26.00;;;6.40;;
18881;SDS011;9573;50.948;11.600;2023-01-29T02:48:28;20.07;;;6.00;;
18881;SDS011;9573;50.948;11.600;2023-01-29T02:51:06;23.83;;;7.33;;
18881;SDS011;9573;50.948;11.600;2023-01-29T02:53:40;21.13;;;6.33;;
18881;SDS011;9573;50.948;11.600;2023-01-29T02:56:16;23.83;;;7.37;;
18881;SDS011;9573;50.948;11.600;2023-01-29T02:58:48;21.93;;;7.20;;
18881;SDS011;9573;50.948;11.600;2023-01-29T03:01:25;25.53;;;6.97;;
18881;SDS011;9573;50.948;11.600;2023-01-29T03:03:58;19.63;;;6.53;;
18881;SDS011;9573;50.948;11.600;2023-01-29T03:06:30;24.40;;;7.07;;
18881;SDS011;9573;50.948;11.600;2023-01-29T03:09:03;22.07;;;6.13;;
18881;SDS011;9573;50.948;11.600;2023-01-29T03:11:37;26.10;;;7.53;;
18881;SDS011;9573;50.948;11.600;2023-01-29T03:14:07;24.27;;;7.17;;
18881;SDS011;9573;50.948;11.600;2023-01-29T03:16:40;23.27;;;6.87;;
18881;SDS011;9573;50.948;11.600;2023-01-29T03:19:13;22.70;;;6.87;;
18881;SDS011;9573;50.948;11.600;2023-01-29T03:21:45;21.43;;;6.70;;
18881;SDS011;9573;50.948;11.600;2023-01-29T03:24:20;20.47;;;6.73;;
18881;SDS011;9573;50.948;11.600;2023-01-29T03:27:11;25.63;;;7.20;;
18881;SDS011;9573;50.948;11.600;2023-01-29T03:30:01;23.03;;;6.83;;
18881;SDS011;9573;50.948;11.600;2023-01-29T03:32:51;23.50;;;6.67;;
18881;SDS011;9573;50.948;11.600;2023-01-29T03:35:22;23.03;;;7.07;;
18881;SDS011;9573;50.948;11.600;2023-01-29T03:37:59;25.10;;;7.13;;
18881;SDS011;9573;50.948;11.600;2023-01-29T03:40:28;25.17;;;7.07;;
18881;SDS011;9573;50.948;11.600;2023-01-29T03:43:03;20.60;;;6.30;;
18881;SDS011;9573;50.948;11.600;2023-01-29T03:45:49;24.23;;;6.60;;
18881;SDS011;9573;50.948;11.600;2023-01-29T03:48:29;22.40;;;6.63;;
18881;SDS011;9573;50.948;11.600;2023-01-29T03:51:04;19.30;;;6.40;;
18881;SDS011;9573;50.948;11.600;2023-01-29T03:53:42;22.60;;;6.23;;
18881;SDS011;9573;50.948;11.600;2023-01-29T03:56:20;23.27;;;6.63;;
18881;SDS011;9573;50.948;11.600;2023-01-29T03:59:01;24.67;;;7.43;;
18881;SDS011;9573;50.948;11.600;2023-01-29T04:01:38;26.30;;;7.67;;
18881;SDS011;9573;50.948;11.600;2023-01-29T04:04:13;28.10;;;8.40;;
18881;SDS011;9573;50.948;11.600;2023-01-29T04:06:44;28.27;;;8.17;;
18881;SDS011;9573;50.948;11.600;2023-01-29T04:09:15;29.83;;;7.97;;
18881;SDS011;9573;50.948;11.600;2023-01-29T04:11:50;25.40;;;7.27;;
18881;SDS011;9573;50.948;11.600;2023-01-29T04:14:24;25.90;;;8.03;;
18881;SDS011;9573;50.948;11.600;2023-01-29T04:16:52;28.53;;;7.63;;
18881;SDS011;9573;50.948;11.600;2023-01-29T04:19:24;29.40;;;7.80;;
18881;SDS011;9573;50.948;11.600;2023-01-29T04:21:52;27.27;;;8.33;;
18881;SDS011;9573;50.948;11.600;2023-01-29T04:24:29;26.93;;;8.07;;
18881;SDS011;9573;50.948;11.600;2023-01-29T04:26:57;26.23;;;8.33;;
18881;SDS011;9573;50.948;11.600;2023-01-29T04:29:39;26.50;;;7.60;;
18881;SDS011;9573;50.948;11.600;2023-01-29T04:32:39;24.87;;;7.17;;
18881;SDS011;9573;50.948;11.600;2023-01-29T04:35:31;24.23;;;7.17;;
18881;SDS011;9573;50.948;11.600;2023-01-29T04:38:10;23.30;;;7.13;;
18881;SDS011;9573;50.948;11.600;2023-01-29T04:40:50;24.93;;;7.30;;
18881;SDS011;9573;50.948;11.600;2023-01-29T04:43:24;23.30;;;6.87;;
18881;SDS011;9573;50.948;11.600;2023-01-29T04:46:06;23.73;;;7.37;;
18881;SDS011;9573;50.948;11.600;2023-01-29T04:48:55;26.77;;;7.20;;
18881;SDS011;9573;50.948;11.600;2023-01-29T04:51:34;24.87;;;7.53;;
18881;SDS011;9573;50.948;11.600;2023-01-29T04:54:15;27.50;;;7.23;;
18881;SDS011;9573;50.948;11.600;2023-01-29T04:56:54;25.50;;;7.20;;
18881;SDS011;9573;50.948;11.600;2023-01-29T04:59:30;27.10;;;8.33;;
18881;SDS011;9573;50.948;11.600;2023-01-29T05:02:02;25.87;;;7.77;;
18881;SDS011;9573;50.948;11.600;2023-01-29T05:04:32;25.40;;;7.43;;
18881;SDS011;9573;50.948;11.600;2023-01-29T05:07:03;27.07;;;8.00;;
18881;SDS011;9573;50.948;11.600;2023-01-29T05:09:34;29.33;;;7.93;;
18881;SDS011;9573;50.948;11.600;2023-01-29T05:12:04;28.80;;;8.40;;
18881;SDS011;9573;50.948;11.600;2023-01-29T05:14:34;28.73;;;8.47;;
18881;SDS011;9573;50.948;11.600;2023-01-29T05:17:08;27.57;;;8.00;;
18881;SDS011;9573;50.948;11.600;2023-01-29T05:19:41;28.47;;;9.03;;
18881;SDS011;9573;50.948;11.600;2023-01-29T05:22:10;28.10;;;8.87;;
18881;SDS011;9573;50.948;11.600;2023-01-29T05:24:41;30.00;;;8.60;;
18881;SDS011;9573;50.948;11.600;2023-01-29T05:27:10;30.50;;;9.20;;
18881;SDS011;9573;50.948;11.600;2023-01-29T05:30:01;29.93;;;8.53;;
18881;SDS011;9573;50.948;11.600;2023-01-29T05:32:29;36.07;;;9.87;;
18881;SDS011;9573;50.948;11.600;2023-01-29T05:34:56;34.43;;;10.07;;
18881;SDS011;9573;50.948;11.600;2023-01-29T05:37:27;33.37;;;9.93;;
18881;SDS011;9573;50.948;11.600;2023-01-29T05:39:54;34.20;;;9.40;;
18881;SDS011;9573;50.948;11.600;2023-01-29T05:42:22;31.87;;;9.47;;
18881;SDS011;9573;50.948;11.600;2023-01-29T05:44:49;26.47;;;7.87;;
18881;SDS011;9573;50.948;11.600;2023-01-29T05:47:20;28.60;;;8.87;;
18881;SDS011;9573;50.948;11.600;2023-01-29T05:50:00;29.07;;;9.07;;
18881;SDS011;9573;50.948;11.600;2023-01-29T05:52:29;29.47;;;8.20;;
18881;SDS011;9573;50.948;11.600;2023-01-29T05:54:56;30.17;;;9.30;;
18881;SDS011;9573;50.948;11.600;2023-01-29T05:57:23;29.47;;;8.60;;
18881;SDS011;9573;50.948;11.600;2023-01-29T05:59:50;29.10;;;9.13;;
18881;SDS011;9573;50.948;11.600;2023-01-29T06:02:17;31.37;;;9.20;;
18881;SDS011;9573;50.948;11.600;2023-01-29T06:04:45;28.90;;;8.97;;
18881;SDS011;9573;50.948;11.600;2023-01-29T06:07:12;27.63;;;8.50;;
18881;SDS011;9573;50.948;11.600;2023-01-29T06:09:40;32.17;;;9.47;;
18881;SDS011;9573;50.948;11.600;2023-01-29T06:12:07;27.83;;;8.20;;
18881;SDS011;9573;50.948;11.600;2023-01-29T06:14:34;27.67;;;8.60;;
18881;SDS011;9573;50.948;11.600;2023-01-29T06:17:02;26.90;;;8.80;;
18881;SDS011;9573;50.948;11.600;2023-01-29T06:19:29;28.40;;;7.47;;
18881;SDS011;9573;50.948;11.600;2023-01-29T06:21:56;29.97;;;9.33;;
18881;SDS011;9573;50.948;11.600;2023-01-29T06:24:23;31.63;;;9.00;;
18881;SDS011;9573;50.948;11.600;2023-01-29T06:26:51;27.03;;;8.23;;
18881;SDS011;9573;50.948;11.600;2023-01-29T06:29:18;29.13;;;8.97;;
18881;SDS011;9573;50.948;11.600;2023-01-29T06:31:45;22.77;;;7.10;;
18881;SDS011;9573;50.948;11.600;2023-01-29T06:34:12;24.70;;;7.70;;
18881;SDS011;9573;50.948;11.600;2023-01-29T06:36:40;28.57;;;9.27;;
18881;SDS011;9573;50.948;11.600;2023-01-29T06:39:07;26.77;;;8.40;;
18881;SDS011;9573;50.948;11.600;2023-01-29T06:41:34;32.43;;;9.03;;
18881;SDS011;9573;50.948;11.600;2023-01-29T06:44:03;28.77;;;8.47;;
18881;SDS011;9573;50.948;11.600;2023-01-29T06:46:30;27.07;;;8.50;;
18881;SDS011;9573;50.948;11.600;2023-01-29T06:48:57;30.23;;;9.20;;
18881;SDS011;9573;50.948;11.600;2023-01-29T06:51:25;31.90;;;9.80;;
18881;SDS011;9573;50.948;11.600;2023-01-29T06:53:52;29.40;;;9.13;;
18881;SDS011;9573;50.948;11.600;2023-01-29T06:56:20;25.50;;;8.37;;
18881;SDS011;9573;50.948;11.600;2023-01-29T06:58:48;29.60;;;8.80;;
18881;SDS011;9573;50.948;11.600;2023-01-29T07:01:16;28.27;;;9.37;;
18881;SDS011;9573;50.948;11.600;2023-01-29T07:03:44;33.87;;;10.03;;
18881;SDS011;9573;50.948;11.600;2023-01-29T07:06:15;29.50;;;10.60;;
18881;SDS011;9573;50.948;11.600;2023-01-29T07:08:42;32.53;;;9.63;;
18881;SDS011;9573;50.948;11.600;2023-01-29T07:11:09;32.57;;;9.67;;
18881;SDS011;9573;50.948;11.600;2023-01-29T07:13:37;31.63;;;10.17;;
18881;SDS011;9573;50.948;11.600;2023-01-29T07:16:04;29.53;;;9.20;;
18881;SDS011;9573;50.948;11.600;2023-01-29T07:18:33;31.13;;;9.57;;
18881;SDS011;9573;50.948;11.600;2023-01-29T07:21:02;29.90;;;8.67;;
18881;SDS011;9573;50.948;11.600;2023-01-29T07:23:31;33.23;;;10.13;;
18881;SDS011;9573;50.948;11.600;2023-01-29T07:25:59;30.93;;;10.67;;
18881;SDS011;9573;50.948;11.600;2023-01-29T07:28:28;30.40;;;9.53;;
18881;SDS011;9573;50.948;11.600;2023-01-29T07:30:56;29.47;;;10.27;;
18881;SDS011;9573;50.948;11.600;2023-01-29T07:33:23;30.53;;;9.00;;
18881;SDS011;9573;50.948;11.600;2023-01-29T07:35:53;29.33;;;9.17;;
18881;SDS011;9573;50.948;11.600;2023-01-29T07:38:20;30.03;;;9.43;;
18881;SDS011;9573;50.948;11.600;2023-01-29T07:40:47;29.73;;;9.77;;
18881;SDS011;9573;50.948;11.600;2023-01-29T07:43:17;27.57;;;8.97;;
18881;SDS011;9573;50.948;11.600;2023-01-29T07:45:44;31.43;;;9.47;;
18881;SDS011;9573;50.948;11.600;2023-01-29T07:48:12;29.87;;;9.50;;
18881;SDS011;9573;50.948;11.600;2023-01-29T07:50:39;34.33;;;9.33;;
18881;SDS011;9573;50.948;11.600;2023-01-29T07:53:10;28.57;;;9.60;;
18881;SDS011;9573;50.948;11.600;2023-01-29T07:55:39;30.27;;;8.57;;
18881;SDS011;9573;50.948;11.600;2023-01-29T07:58:09;32.00;;;10.53;;
18881;SDS011;9573;50.948;11.600;2023-01-29T08:00:36;29.93;;;9.97;;
18881;SDS011;9573;50.948;11.600;2023-01-29T08:03:04;30.63;;;8.47;;
18881;SDS011;9573;50.948;11.600;2023-01-29T08:05:36;30.13;;;8.70;;
18881;SDS011;9573;50.948;11.600;2023-01-29T08:08:03;28.83;;;9.50;;
18881;SDS011;9573;50.948;11.600;2023-01-29T08:10:32;26.57;;;8.37;;
18881;SDS011;9573;50.948;11.600;2023-01-29T08:12:59;26.47;;;7.67;;
18881;SDS011;9573;50.948;11.600;2023-01-29T08:15:28;26.63;;;8.30;;
18881;SDS011;9573;50.948;11.600;2023-01-29T08:17:55;30.43;;;10.07;;
18881;SDS011;9573;50.948;11.600;2023-01-29T08:20:23;27.27;;;9.20;;
18881;SDS011;9573;50.948;11.600;2023-01-29T08:22:56;27.30;;;8.90;;
18881;SDS011;9573;50.948;11.600;2023-01-29T08:25:25;26.10;;;8.03;;
18881;SDS011;9573;50.948;11.600;2023-01-29T08:27:54;32.17;;;9.10;;
18881;SDS011;9573;50.948;11.600;2023-01-29T08:30:22;26.10;;;8.83;;
18881;SDS011;9573;50.948;11.600;2023-01-29T08:32:50;23.83;;;8.20;;
18881;SDS011;9573;50.948;11.600;2023-01-29T08:35:17;30.60;;;10.00;;
18881;SDS011;9573;50.948;11.600;2023-01-29T08:37:46;27.87;;;9.43;;
18881;SDS011;9573;50.948;11.600;2023-01-29T08:40:18;25.43;;;7.93;;
18881;SDS011;9573;50.948;11.600;2023-01-29T08:42:46;25.30;;;8.53;;
18881;SDS011;9573;50.948;11.600;2023-01-29T08:45:15;26.77;;;8.30;;
18881;SDS011;9573;50.948;11.600;2023-01-29T08:47:45;23.50;;;7.47;;
18881;SDS011;9573;50.948;11.600;2023-01-29T08:50:13;20.37;;;7.43;;
18881;SDS011;9573;50.948;11.600;2023-01-29T08:52:40;26.87;;;9.63;;
18881;SDS011;9573;50.948;11.600;2023-01-29T08:55:07;30.80;;;10.20;;
18881;SDS011;9573;50.948;11.600;2023-01-29T08:57:35;28.37;;;9.87;;
18881;SDS011;9573;50.948;11.600;2023-01-29T09:00:02;30.37;;;10.63;;
18881;SDS011;9573;50.948;11.600;2023-01-29T09:02:33;28.33;;;9.57;;
18881;SDS011;9573;50.948;11.600;2023-01-29T09:05:00;29.07;;;9.17;;
18881;SDS011;9573;50.948;11.600;2023-01-29T09:07:27;29.40;;;10.63;;
18881;SDS011;9573;50.948;11.600;2023-01-29T09:09:55;32.10;;;10.17;;
18881;SDS011;9573;50.948;11.600;2023-01-29T09:12:22;28.77;;;9.43;;
18881;SDS011;9573;50.948;11.600;2023-01-29T09:14:49;29.20;;;9.60;;
18881;SDS011;9573;50.948;11.600;2023-01-29T09:17:16;28.93;;;9.87;;
18881;SDS011;9573;50.948;11.600;2023-01-29T09:19:44;26.70;;;8.63;;
18881;SDS011;9573;50.948;11.600;2023-01-29T09:22:12;30.03;;;9.27;;
18881;SDS011;9573;50.948;11.600;2023-01-29T09:24:39;29.10;;;9.47;;
18881;SDS011;9573;50.948;11.600;2023-01-29T09:27:06;28.77;;;9.00;;
18881;SDS011;9573;50.948;11.600;2023-01-29T09:29:34;31.83;;;9.77;;
18881;SDS011;9573;50.948;11.600;2023-01-29T09:32:02;22.60;;;8.13;;
18881;SDS011;9573;50.948;11.600;2023-01-29T09:34:30;28.27;;;10.03;;
18881;SDS011;9573;50.948;11.600;2023-01-29T09:36:59;31.47;;;11.33;;
18881;SDS011;9573;50.948;11.600;2023-01-29T09:39:26;29.87;;;10.53;;
18881;SDS011;9573;50.948;11.600;2023-01-29T09:41:55;28.03;;;9.07;;
18881;SDS011;9573;50.948;11.600;2023-01-29T09:44:34;27.27;;;9.93;;
18881;SDS011;9573;50.948;11.600;2023-01-29T09:47:21;27.20;;;9.60;;
18881;SDS011;9573;50.948;11.600;2023-01-29T09:49:54;31.47;;;10.17;;
18881;SDS011;9573;50.948;11.600;2023-01-29T09:52:27;27.30;;;9.10;;
18881;SDS011;9573;50.948;11.600;2023-01-29T09:54:59;26.20;;;8.17;;
18881;SDS011;9573;50.948;11.600;2023-01-29T09:57:32;24.27;;;8.50;;
18881;SDS011;9573;50.948;11.600;2023-01-29T10:00:09;26.73;;;8.53;;
18881;SDS011;9573;50.948;11.600;2023-01-29T10:02:46;31.77;;;10.83;;
18881;SDS011;9573;50.948;11.600;2023-01-29T10:05:29;26.73;;;8.90;;
18881;SDS011;9573;50.948;11.600;2023-01-29T10:08:17;23.83;;;8.23;;
18881;SDS011;9573;50.948;11.600;2023-01-29T10:11:03;25.20;;;8.90;;
18881;SDS011;9573;50.948;11.600;2023-01-29T10:13:42;27.43;;;9.40;;
18881;SDS011;9573;50.948;11.600;2023-01-29T10:16:20;32.13;;;8.53;;
18881;SDS011;9573;50.948;11.600;2023-01-29T10:19:07;28.53;;;8.33;;
18881;SDS011;9573;50.948;11.600;2023-01-29T10:25:05;27.33;;;9.03;;
18881;SDS011;9573;50.948;11.600;2023-01-29T10:27:38;25.33;;;8.03;;
18881;SDS011;9573;50.948;11.600;2023-01-29T10:30:17;30.93;;;8.80;;
18881;SDS011;9573;50.948;11.600;2023-01-29T10:32:53;23.57;;;7.47;;
18881;SDS011;9573;50.948;11.600;2023-01-29T10:35:26;26.00;;;9.13;;
18881;SDS011;9573;50.948;11.600;2023-01-29T10:37:57;22.80;;;7.30;;
18881;SDS011;9573;50.948;11.600;2023-01-29T10:40:43;20.47;;;7.03;;
18881;SDS011;9573;50.948;11.600;2023-01-29T10:43:16;27.87;;;7.97;;
18881;SDS011;9573;50.948;11.600;2023-01-29T10:45:55;23.07;;;7.47;;
18881;SDS011;9573;50.948;11.600;2023-01-29T10:48:39;28.10;;;8.70;;
18881;SDS011;9573;50.948;11.600;2023-01-29T10:51:21;23.77;;;8.47;;
18881;SDS011;9573;50.948;11.600;2023-01-29T10:54:15;22.70;;;6.77;;
18881;SDS011;9573;50.948;11.600;2023-01-29T10:57:00;24.87;;;7.83;;
18881;SDS011;9573;50.948;11.600;2023-01-29T10:59:43;32.77;;;7.97;;
18881;SDS011;9573;50.948;11.600;2023-01-29T11:02:24;23.20;;;8.13;;
18881;SDS011;9573;50.948;11.600;2023-01-29T11:04:52;22.53;;;6.97;;
18881;SDS011;9573;50.948;11.600;2023-01-29T11:07:19;23.43;;;8.07;;
18881;SDS011;9573;50.948;11.600;2023-01-29T11:09:50;34.87;;;8.47;;
18881;SDS011;9573;50.948;11.600;2023-01-29T11:12:24;29.83;;;8.67;;
18881;SDS011;9573;50.948;11.600;2023-01-29T11:14:57;21.43;;;6.97;;
18881;SDS011;9573;50.948;11.600;2023-01-29T11:17:31;22.73;;;7.03;;
18881;SDS011;9573;50.948;11.600;2023-01-29T11:19:58;22.77;;;7.50;;
18881;SDS011;9573;50.948;11.600;2023-01-29T11:22:25;27.97;;;9.97;;
18881;SDS011;9573;50.948;11.600;2023-01-29T11:25:06;28.20;;;8.63;;
18881;SDS011;9573;50.948;11.600;2023-01-29T11:27:41;27.23;;;8.77;;
18881;SDS011;9573;50.948;11.600;2023-01-29T11:30:14;28.53;;;8.73;;
18881;SDS011;9573;50.948;11.600;2023-01-29T11:32:51;23.63;;;8.10;;
18881;SDS011;9573;50.948;11.600;2023-01-29T11:35:32;33.10;;;9.10;;
18881;SDS011;9573;50.948;11.600;2023-01-29T11:38:08;26.00;;;8.63;;
18881;SDS011;9573;50.948;11.600;2023-01-29T11:40:45;25.20;;;8.40;;
18881;SDS011;9573;50.948;11.600;2023-01-29T11:43:18;38.87;;;14.20;;
18881;SDS011;9573;50.948;11.600;2023-01-29T11:45:49;25.33;;;8.83;;
18881;SDS011;9573;50.948;11.600;2023-01-29T11:48:19;28.77;;;9.50;;
18881;SDS011;9573;50.948;11.600;2023-01-29T11:50:52;25.57;;;8.37;;
18881;SDS011;9573;50.948;11.600;2023-01-29T11:53:32;41.63;;;9.87;;
18881;SDS011;9573;50.948;11.600;2023-01-29T11:56:04;24.57;;;8.93;;
18881;SDS011;9573;50.948;11.600;2023-01-29T11:58:43;27.57;;;8.80;;
18881;SDS011;9573;50.948;11.600;2023-01-29T12:01:12;25.13;;;8.67;;
18881;SDS011;9573;50.948;11.600;2023-01-29T12:03:44;24.97;;;8.73;;
18881;SDS011;9573;50.948;11.600;2023-01-29T12:06:18;26.40;;;8.67;;
18881;SDS011;9573;50.948;11.600;2023-01-29T12:08:52;22.77;;;7.80;;
18881;SDS011;9573;50.948;11.600;2023-01-29T12:11:23;23.73;;;7.67;;
18881;SDS011;9573;50.948;11.600;2023-01-29T12:13:56;25.57;;;8.00;;
18881;SDS011;9573;50.948;11.600;2023-01-29T12:16:26;25.20;;;7.77;;
18881;SDS011;9573;50.948;11.600;2023-01-29T12:19:04;23.90;;;7.93;;
18881;SDS011;9573;50.948;11.600;2023-01-29T12:21:38;25.37;;;8.20;;
18881;SDS011;9573;50.948;11.600;2023-01-29T12:24:14;31.50;;;8.67;;
18881;SDS011;9573;50.948;11.600;2023-01-29T12:26:57;27.80;;;7.80;;
18881;SDS011;9573;50.948;11.600;2023-01-29T12:29:34;22.73;;;8.00;;
18881;SDS011;9573;50.948;11.600;2023-01-29T12:32:10;22.43;;;7.73;;
18881;SDS011;9573;50.948;11.600;2023-01-29T12:34:49;24.63;;;7.90;;
18881;SDS011;9573;50.948;11.600;2023-01-29T12:37:22;20.83;;;7.10;;
18881;SDS011;9573;50.948;11.600;2023-01-29T12:39:55;23.97;;;7.83;;
18881;SDS011;9573;50.948;11.600;2023-01-29T12:42:23;19.73;;;7.00;;
18881;SDS011;9573;50.948;11.600;2023-01-29T12:44:52;21.93;;;7.60;;
18881;SDS011;9573;50.948;11.600;2023-01-29T12:47:25;21.20;;;7.20;;
18881;SDS011;9573;50.948;11.600;2023-01-29T12:49:59;21.37;;;7.03;;
18881;SDS011;9573;50.948;11.600;2023-01-29T12:52:36;21.30;;;6.77;;
18881;SDS011;9573;50.948;11.600;2023-01-29T12:55:09;22.90;;;7.07;;
18881;SDS011;9573;50.948;11.600;2023-01-29T12:57:44;23.30;;;7.60;;
18881;SDS011;9573;50.948;11.600;2023-01-29T13:00:19;19.90;;;6.70;;
18881;SDS011;9573;50.948;11.600;2023-01-29T13:02:52;21.20;;;7.17;;
18881;SDS011;9573;50.948;11.600;2023-01-29T13:05:25;17.10;;;6.30;;
18881;SDS011;9573;50.948;11.600;2023-01-29T13:08:00;20.63;;;7.03;;
18881;SDS011;9573;50.948;11.600;2023-01-29T13:10:34;29.10;;;7.00;;
18881;SDS011;9573;50.948;11.600;2023-01-29T13:13:05;21.90;;;7.10;;
18881;SDS011;9573;50.948;11.600;2023-01-29T13:15:43;19.87;;;6.27;;
18881;SDS011;9573;50.948;11.600;2023-01-29T13:21:04;16.93;;;5.93;;
18881;SDS011;9573;50.948;11.600;2023-01-29T13:23:40;16.73;;;5.93;;
18881;SDS011;9573;50.948;11.600;2023-01-29T13:26:11;18.53;;;5.87;;
18881;SDS011;9573;50.948;11.600;2023-01-29T13:28:38;20.37;;;6.40;;
18881;SDS011;9573;50.948;11.600;2023-01-29T13:31:10;13.57;;;4.57;;
18881;SDS011;9573;50.948;11.600;2023-01-29T13:33:50;14.67;;;4.83;;
18881;SDS011;9573;50.948;11.600;2023-01-29T13:36:22;18.13;;;6.40;;
18881;SDS011;9573;50.948;11.600;2023-01-29T13:38:54;18.70;;;6.47;;
18881;SDS011;9573;50.948;11.600;2023-01-29T13:41:30;22.17;;;7.20;;
18881;SDS011;9573;50.948;11.600;2023-01-29T13:44:03;28.27;;;9.27;;
18881;SDS011;9573;50.948;11.600;2023-01-29T13:46:37;24.33;;;9.20;;
18881;SDS011;9573;50.948;11.600;2023-01-29T13:49:14;19.37;;;7.13;;
18881;SDS011;9573;50.948;11.600;2023-01-29T13:51:51;18.30;;;7.23;;
18881;SDS011;9573;50.948;11.600;2023-01-29T13:54:20;19.40;;;6.80;;
18881;SDS011;9573;50.948;11.600;2023-01-29T13:56:57;21.97;;;7.00;;
18881;SDS011;9573;50.948;11.600;2023-01-29T13:59:48;18.83;;;6.03;;
18881;SDS011;9573;50.948;11.600;2023-01-29T14:02:20;21.67;;;6.40;;
18881;SDS011;9573;50.948;11.600;2023-01-29T14:05:09;13.90;;;4.60;;
18881;SDS011;9573;50.948;11.600;2023-01-29T14:08:09;19.63;;;6.33;;
18881;SDS011;9573;50.948;11.600;2023-01-29T14:14:00;16.33;;;5.37;;
18881;SDS011;9573;50.948;11.600;2023-01-29T14:16:34;20.57;;;6.87;;
18881;SDS011;9573;50.948;11.600;2023-01-29T14:19:03;20.67;;;6.40;;
18881;SDS011;9573;50.948;11.600;2023-01-29T14:21:32;21.07;;;5.47;;
18881;SDS011;9573;50.948;11.600;2023-01-29T14:24:07;21.20;;;6.87;;
18881;SDS011;9573;50.948;11.600;2023-01-29T14:26:41;15.57;;;5.10;;
18881;SDS011;9573;50.948;11.600;2023-01-29T14:29:18;18.20;;;5.67;;
18881;SDS011;9573;50.948;11.600;2023-01-29T14:31:49;25.17;;;6.93;;
18881;SDS011;9573;50.948;11.600;2023-01-29T14:34:24;19.83;;;6.63;;
18881;SDS011;9573;50.948;11.600;2023-01-29T14:36:54;18.13;;;6.43;;
18881;SDS011;9573;50.948;11.600;2023-01-29T14:39:28;19.63;;;5.67;;
18881;SDS011;9573;50.948;11.600;2023-01-29T14:42:14;21.20;;;6.93;;
18881;SDS011;9573;50.948;11.600;2023-01-29T14:44:54;19.40;;;6.70;;
18881;SDS011;9573;50.948;11.600;2023-01-29T14:50:40;19.00;;;6.17;;
18881;SDS011;9573;50.948;11.600;2023-01-29T14:53:26;18.37;;;6.00;;
18881;SDS011;9573;50.948;11.600;2023-01-29T14:56:10;19.87;;;6.57;;
18881;SDS011;9573;50.948;11.600;2023-01-29T14:58:41;20.73;;;6.23;;
18881;SDS011;9573;50.948;11.600;2023-01-29T15:01:19;22.93;;;6.70;;
18881;SDS011;9573;50.948;11.600;2023-01-29T15:03:50;21.37;;;7.27;;
18881;SDS011;9573;50.948;11.600;2023-01-29T15:06:24;15.73;;;4.13;;
18881;SDS011;9573;50.948;11.600;2023-01-29T15:09:01;20.97;;;7.07;;
18881;SDS011;9573;50.948;11.600;2023-01-29T15:11:39;22.10;;;7.03;;
18881;SDS011;9573;50.948;11.600;2023-01-29T15:14:16;22.90;;;7.10;;
18881;SDS011;9573;50.948;11.600;2023-01-29T15:16:55;20.60;;;6.43;;
18881;SDS011;9573;50.948;11.600;2023-01-29T15:19:31;22.07;;;6.17;;
18881;SDS011;9573;50.948;11.600;2023-01-29T15:22:07;15.33;;;4.73;;
18881;SDS011;9573;50.948;11.600;2023-01-29T15:24:37;25.23;;;7.70;;
18881;SDS011;9573;50.948;11.600;2023-01-29T15:27:08;21.23;;;7.00;;